createdAt,value
2022-11-05T00:00:04.862Z,2.75
2022-11-05T00:02:51.882Z,3.97
2022-11-05T00:05:37.556Z,1.52
2022-11-05T00:08:23.548Z,9.93
2022-11-05T00:10:51.678Z,2.38
2022-11-05T00:13:37.029Z,3.30
2022-11-05T00:16:22.118Z,4.57
2022-11-05T00:19:06.464Z,3.17
2022-11-05T00:21:52.361Z,2.58
2022-11-05T00:24:38.025Z,2.47
2022-11-05T00:27:06.203Z,5.30
2022-11-05T00:29:34.096Z,1.33
2022-11-05T00:32:02.273Z,3.72
2022-11-05T00:34:31.502Z,1.80
2022-11-05T00:36:59.422Z,1.67
2022-11-05T00:39:27.371Z,1.30
2022-11-05T00:42:09.197Z,4.18
2022-11-05T00:44:55.574Z,3.95
2022-11-05T00:47:41.204Z,2.85
2022-11-05T00:50:11.032Z,2.28
2022-11-05T00:52:57.573Z,3.00
2022-11-05T00:55:28.156Z,2.03
2022-11-05T00:57:56.566Z,1.27
2022-11-05T01:00:26.318Z,4.40
2022-11-05T01:02:54.629Z,3.20
2022-11-05T01:05:24.101Z,2.80
2022-11-05T01:07:52.993Z,3.13
2022-11-05T01:10:21.189Z,1.52
2022-11-05T01:12:49.525Z,2.67
2022-11-05T01:15:17.968Z,1.30
2022-11-05T01:17:45.901Z,1.10
2022-11-05T01:20:14.034Z,3.38
2022-11-05T01:22:43.518Z,2.65
2022-11-05T01:25:11.766Z,2.20
2022-11-05T01:27:39.855Z,3.42
2022-11-05T01:30:10.263Z,1.38
2022-11-05T01:32:39.264Z,1.20
2022-11-05T01:35:09.264Z,2.30
2022-11-05T01:37:37.370Z,1.48
2022-11-05T01:40:08.839Z,3.13
2022-11-05T01:42:36.761Z,1.20
2022-11-05T01:45:15.448Z,2.08
2022-11-05T01:47:50.551Z,2.30
2022-11-05T01:50:35.428Z,1.75
2022-11-05T01:53:21.407Z,1.00
2022-11-05T01:55:54.452Z,2.33
2022-11-05T01:58:25.257Z,1.88
2022-11-05T02:00:53.888Z,1.00
2022-11-05T02:03:22.181Z,1.10
2022-11-05T02:05:53.260Z,3.35
2022-11-05T02:08:34.532Z,3.53
2022-11-05T02:11:04.214Z,2.72
2022-11-05T02:13:32.126Z,1.20
2022-11-05T02:16:05.749Z,0.82
2022-11-05T02:18:47.370Z,1.05
2022-11-05T02:22:00.466Z,0.98
2022-11-05T02:24:52.890Z,2.28
2022-11-05T02:27:41.013Z,0.77
2022-11-05T02:30:26.018Z,2.42
2022-11-05T02:33:10.808Z,2.38
2022-11-05T02:36:00.349Z,0.73
2022-11-05T02:38:40.315Z,1.00
2022-11-05T02:41:14.800Z,3.50
2022-11-05T02:43:52.754Z,1.58
2022-11-05T02:46:33.501Z,1.98
2022-11-05T02:49:14.381Z,1.20
2022-11-05T02:51:48.489Z,2.10
2022-11-05T02:54:21.488Z,1.35
2022-11-05T02:56:52.806Z,1.50
2022-11-05T02:59:21.006Z,4.00
2022-11-05T03:01:52.223Z,4.00
2022-11-05T03:04:23.469Z,1.88
2022-11-05T03:07:15.997Z,1.55
2022-11-05T03:10:26.518Z,2.22
2022-11-05T03:13:06.078Z,3.00
2022-11-05T03:15:48.453Z,2.03
2022-11-05T03:18:26.404Z,2.00
2022-11-05T03:20:59.902Z,3.88
2022-11-05T03:23:31.768Z,1.90
2022-11-05T03:26:06.494Z,1.95
2022-11-05T03:28:38.982Z,4.13
2022-11-05T03:31:08.947Z,2.80
2022-11-05T03:33:41.562Z,1.98
2022-11-05T03:36:16.100Z,1.48
2022-11-05T03:38:47.777Z,5.88
2022-11-05T03:41:17.110Z,3.00
2022-11-05T03:43:50.103Z,2.50
2022-11-05T03:46:22.554Z,6.93
2022-11-05T03:48:55.253Z,2.33
2022-11-05T03:51:30.089Z,2.17
2022-11-05T03:54:02.601Z,1.02
2022-11-05T03:56:35.361Z,1.17
2022-11-05T03:59:05.356Z,3.42
2022-11-05T04:01:33.866Z,1.95
2022-11-05T04:04:03.444Z,1.63
2022-11-05T04:06:49.029Z,1.45
2022-11-05T04:09:34.769Z,5.07
2022-11-05T04:12:20.481Z,1.88
2022-11-05T04:14:48.460Z,3.13
2022-11-05T04:17:15.409Z,1.27
2022-11-05T04:20:03.604Z,2.10
2022-11-05T04:22:51.070Z,2.33
2022-11-05T04:25:20.705Z,2.10
2022-11-05T04:27:49.254Z,2.30
2022-11-05T04:30:18.352Z,6.50
2022-11-05T04:33:01.674Z,2.88
2022-11-05T04:35:32.565Z,2.95
2022-11-05T04:38:00.551Z,2.85
2022-11-05T04:40:28.484Z,6.68
2022-11-05T04:42:56.532Z,3.70
2022-11-05T04:45:25.376Z,2.30
2022-11-05T04:47:53.228Z,1.80
2022-11-05T04:50:21.403Z,1.98
2022-11-05T04:52:50.783Z,2.00
2022-11-05T04:55:19.418Z,2.63
2022-11-05T04:57:49.194Z,2.10
2022-11-05T05:00:18.028Z,3.88
2022-11-05T05:02:46.500Z,5.68
2022-11-05T05:05:15.107Z,10.32
2022-11-05T05:07:43.421Z,2.92
2022-11-05T05:10:13.105Z,1.65
2022-11-05T05:12:41.044Z,2.72
2022-11-05T05:15:09.450Z,3.85
2022-11-05T05:17:37.301Z,5.60
2022-11-05T05:20:23.227Z,1.83
2022-11-05T05:22:54.249Z,4.28
2022-11-05T05:25:23.840Z,1.67
2022-11-05T05:27:51.950Z,3.58
2022-11-05T05:30:19.860Z,2.45
2022-11-05T05:32:47.735Z,4.60
2022-11-05T05:35:15.833Z,5.97
2022-11-05T05:37:44.260Z,1.92
2022-11-05T05:40:12.831Z,2.28
2022-11-05T05:42:43.583Z,3.10
2022-11-05T05:45:13.074Z,2.70
2022-11-05T05:47:41.015Z,3.42
2022-11-05T05:50:09.312Z,6.32
2022-11-05T05:52:37.310Z,2.83
2022-11-05T05:55:06.157Z,2.70
2022-11-05T05:57:35.272Z,3.47
2022-11-05T06:00:05.480Z,4.93
2022-11-05T06:02:33.490Z,4.78
2022-11-05T06:05:01.483Z,3.03
2022-11-05T06:07:34.434Z,3.88
2022-11-05T06:10:06.501Z,3.20
2022-11-05T06:12:34.725Z,4.07
2022-11-05T06:15:04.817Z,2.53
2022-11-05T06:17:34.288Z,5.05
2022-11-05T06:20:02.262Z,3.22
2022-11-05T06:22:30.465Z,3.88
2022-11-05T06:24:58.419Z,3.35
2022-11-05T06:27:26.550Z,3.72
2022-11-05T06:29:54.573Z,3.53
2022-11-05T06:32:23.862Z,4.00
2022-11-05T06:34:51.820Z,3.88
2022-11-05T06:37:19.721Z,5.22
2022-11-05T06:39:47.785Z,4.65
2022-11-05T06:42:18.656Z,4.97
2022-11-05T06:44:47.126Z,7.82
2022-11-05T06:47:15.006Z,5.25
2022-11-05T06:49:44.302Z,7.72
2022-11-05T06:52:12.268Z,10.88
2022-11-05T06:54:40.787Z,5.28
2022-11-05T06:57:09.812Z,6.97
2022-11-05T06:59:38.011Z,6.07
2022-11-05T07:02:06.069Z,7.35
2022-11-05T07:04:34.333Z,7.65
2022-11-05T07:07:03.776Z,5.22
2022-11-05T07:09:31.888Z,4.15
2022-11-05T07:11:59.856Z,4.90
2022-11-05T07:14:27.801Z,5.55
2022-11-05T07:16:57.423Z,7.20
2022-11-05T07:19:25.389Z,10.85
2022-11-05T07:21:53.276Z,10.30
2022-11-05T07:24:22.532Z,6.32
2022-11-05T07:26:50.649Z,13.32
2022-11-05T07:29:18.616Z,11.25
2022-11-05T07:31:47.469Z,10.38
2022-11-05T07:34:15.481Z,11.57
2022-11-05T07:36:43.394Z,11.50
2022-11-05T07:39:11.320Z,12.13
2022-11-05T07:41:40.699Z,14.00
2022-11-05T07:44:08.737Z,14.13
2022-11-05T07:46:36.686Z,14.02
2022-11-05T07:49:04.904Z,15.90
2022-11-05T07:51:32.854Z,15.10
2022-11-05T07:54:00.873Z,20.10
2022-11-05T07:56:28.849Z,17.42
2022-11-05T07:58:58.083Z,16.05
2022-11-05T08:01:26.245Z,17.27
2022-11-05T08:03:54.337Z,20.10
2022-11-05T08:06:22.483Z,17.13
2022-11-05T08:08:50.387Z,18.08
2022-11-05T08:11:18.835Z,15.15
2022-11-05T08:13:46.788Z,16.02
2022-11-05T08:16:16.467Z,18.73
2022-11-05T08:18:44.697Z,17.45
2022-11-05T08:21:12.628Z,13.50
2022-11-05T08:23:42.439Z,12.02
2022-11-05T08:26:11.367Z,17.38
2022-11-05T08:28:39.331Z,15.07
2022-11-05T08:31:07.321Z,14.38
2022-11-05T08:33:36.640Z,13.80
2022-11-05T08:36:05.267Z,12.02
2022-11-05T08:38:33.230Z,8.32
2022-11-05T08:41:01.329Z,11.98
2022-11-05T08:43:29.284Z,9.77
2022-11-05T08:45:57.221Z,9.23
2022-11-05T08:48:25.124Z,9.55
2022-11-05T08:50:54.402Z,7.55
2022-11-05T08:53:22.565Z,6.78
2022-11-05T08:55:51.508Z,6.05
2022-11-05T08:58:20.721Z,8.48
2022-11-05T09:00:50.353Z,9.80
2022-11-05T09:03:18.727Z,6.07
2022-11-05T09:05:47.082Z,8.27
2022-11-05T09:08:18.554Z,6.78
2022-11-05T09:10:47.801Z,7.70
2022-11-05T09:13:19.381Z,8.93
2022-11-05T09:15:48.425Z,5.85
2022-11-05T09:18:17.037Z,9.40
2022-11-05T09:20:45.713Z,6.63
2022-11-05T09:23:15.477Z,7.72
2022-11-05T09:25:45.385Z,6.07
2022-11-05T09:28:17.108Z,5.95
2022-11-05T09:30:47.289Z,7.90
2022-11-05T09:33:16.713Z,4.63
2022-11-05T09:35:44.852Z,5.53
2022-11-05T09:38:13.025Z,4.35
2022-11-05T09:40:48.534Z,6.88
2022-11-05T09:43:19.981Z,4.60
2022-11-05T09:45:52.322Z,4.97
2022-11-05T09:48:25.775Z,4.32
2022-11-05T09:50:55.459Z,5.82
2022-11-05T09:53:25.136Z,5.95
2022-11-05T09:55:57.109Z,6.82
2022-11-05T09:58:40.157Z,9.70
2022-11-05T10:01:12.851Z,9.35
2022-11-05T10:03:45.534Z,10.38
2022-11-05T10:06:19.749Z,13.35
2022-11-05T10:08:50.868Z,6.28
2022-11-05T10:11:25.955Z,12.35
2022-11-05T10:13:58.338Z,7.45
2022-11-05T10:16:30.811Z,8.38
2022-11-05T10:19:06.135Z,11.10
2022-11-05T10:22:04.360Z,14.43
2022-11-05T10:24:22.888Z,9.30
2022-11-05T10:26:54.132Z,8.20
2022-11-05T10:29:29.193Z,8.45
2022-11-05T10:31:58.554Z,12.55
2022-11-05T10:34:31.582Z,11.95
2022-11-05T10:36:59.647Z,10.40
2022-11-05T10:39:28.629Z,11.55
2022-11-05T10:42:11.756Z,8.18
2022-11-05T10:44:48.506Z,6.95
2022-11-05T10:47:36.733Z,6.88
2022-11-05T10:50:09.568Z,7.07
2022-11-05T10:52:40.387Z,6.97
2022-11-05T10:55:15.998Z,10.40
2022-11-05T10:57:45.292Z,7.97
2022-11-05T11:00:31.251Z,8.90
2022-11-05T11:03:01.545Z,10.38
2022-11-05T11:05:31.491Z,8.05
2022-11-05T11:08:04.965Z,9.20
2022-11-05T11:10:48.830Z,6.72
2022-11-05T11:13:21.958Z,6.43
2022-11-05T11:15:51.066Z,10.23
2022-11-05T11:18:27.327Z,6.75
2022-11-05T11:21:05.328Z,7.90
2022-11-05T11:23:39.069Z,6.13
2022-11-05T11:26:07.925Z,6.78
2022-11-05T11:28:39.456Z,9.00
2022-11-05T11:31:09.929Z,6.70
2022-11-05T11:33:39.045Z,7.25
2022-11-05T11:36:08.641Z,8.02
2022-11-05T11:38:37.392Z,7.18
2022-11-05T11:41:24.710Z,8.65
2022-11-05T11:43:57.620Z,9.57
2022-11-05T11:46:25.783Z,6.43
2022-11-05T11:48:53.699Z,12.65
2022-11-05T11:51:31.766Z,6.57
2022-11-05T11:54:00.688Z,9.80
2022-11-05T11:56:30.297Z,8.80
2022-11-05T11:59:35.075Z,5.75
2022-11-05T12:02:42.768Z,5.78
2022-11-05T12:05:26.046Z,4.55
2022-11-05T12:07:58.092Z,7.60
2022-11-05T12:10:41.959Z,5.25
2022-11-05T12:13:50.601Z,4.75
2022-11-05T12:16:29.521Z,4.10
2022-11-05T12:19:10.145Z,5.13
2022-11-05T12:21:58.142Z,6.43
2022-11-05T12:24:48.785Z,6.28
2022-11-05T12:27:31.479Z,5.53
2022-11-05T12:30:04.319Z,5.72
2022-11-05T12:33:08.764Z,8.00
2022-11-05T12:35:57.730Z,8.30
2022-11-05T12:38:43.415Z,11.07
2022-11-05T12:41:17.532Z,7.18
2022-11-05T12:43:57.650Z,8.60
2022-11-05T12:46:29.347Z,10.05
2022-11-05T12:49:21.380Z,5.45
2022-11-05T12:52:03.478Z,9.65
2022-11-05T12:54:46.799Z,7.13
2022-11-05T12:57:16.787Z,7.80
2022-11-05T12:59:51.752Z,10.02
2022-11-05T13:02:27.304Z,9.75
2022-11-05T13:05:00.685Z,8.15
2022-11-05T13:07:31.841Z,9.63
2022-11-05T13:10:06.297Z,11.68
2022-11-05T13:12:39.132Z,11.05
2022-11-05T13:15:16.333Z,10.10
2022-11-05T13:17:52.614Z,11.80
2022-11-05T13:20:25.341Z,10.27
2022-11-05T13:22:57.402Z,9.38
2022-11-05T13:25:28.253Z,9.25
2022-11-05T13:28:00.339Z,9.98
2022-11-05T13:30:32.529Z,9.93
2022-11-05T13:33:04.579Z,9.05
2022-11-05T13:35:41.185Z,9.65
2022-11-05T13:38:33.624Z,9.07
2022-11-05T13:41:13.553Z,13.85
2022-11-05T13:43:59.983Z,11.75
2022-11-05T13:46:52.644Z,8.55
2022-11-05T13:49:45.276Z,11.43
2022-11-05T13:52:42.316Z,10.88
2022-11-05T13:55:48.550Z,13.88
2022-11-05T13:58:45.185Z,11.02
2022-11-05T14:01:22.353Z,9.75
2022-11-05T14:03:53.281Z,9.23
2022-11-05T14:06:26.585Z,9.77
2022-11-05T14:08:58.851Z,8.73
2022-11-05T14:11:30.120Z,10.70
2022-11-05T14:14:00.188Z,11.13
2022-11-05T14:16:40.548Z,10.20
2022-11-05T14:19:33.383Z,9.55
2022-11-05T14:22:21.485Z,11.23
2022-11-05T14:24:50.789Z,6.82
2022-11-05T14:27:43.583Z,7.97
2022-11-05T14:30:41.503Z,9.95
2022-11-05T14:33:30.348Z,12.25
2022-11-05T14:36:31.789Z,9.30
2022-11-05T14:39:12.997Z,11.57
2022-11-05T14:41:58.745Z,9.25
2022-11-05T14:44:27.199Z,13.88
2022-11-05T14:46:58.261Z,12.93
2022-11-05T14:49:29.756Z,10.60
2022-11-05T14:52:00.074Z,9.88
2022-11-05T14:54:35.560Z,11.45
2022-11-05T14:57:05.330Z,10.65
2022-11-05T14:59:36.155Z,11.98
2022-11-05T15:02:10.296Z,10.55
2022-11-05T15:04:40.594Z,15.35
2022-11-05T15:07:34.518Z,8.68
2022-11-05T15:10:10.281Z,13.15
2022-11-05T15:12:45.557Z,9.43
2022-11-05T15:15:24.775Z,8.88
2022-11-05T15:18:02.773Z,9.32
2022-11-05T15:20:40.223Z,11.57
2022-11-05T15:23:13.067Z,8.55
2022-11-05T15:25:53.155Z,11.55
2022-11-05T15:28:30.123Z,8.68
2022-11-05T15:31:00.679Z,12.77
2022-11-05T15:33:28.889Z,13.60
2022-11-05T15:36:12.056Z,13.48
2022-11-05T15:38:56.646Z,13.90
2022-11-05T15:41:34.479Z,13.25
2022-11-05T15:44:03.791Z,11.32
2022-11-05T15:46:31.654Z,10.45
2022-11-05T15:49:04.069Z,8.95
2022-11-05T15:51:32.001Z,9.57
2022-11-05T15:54:24.417Z,15.85
2022-11-05T15:56:52.084Z,11.90
2022-11-05T15:59:23.482Z,9.90
2022-11-05T16:01:56.253Z,21.60
2022-11-05T16:04:27.120Z,15.85
2022-11-05T16:06:58.191Z,11.50
2022-11-05T16:09:28.472Z,18.23
2022-11-05T16:12:15.008Z,12.43
2022-11-05T16:14:44.740Z,9.35
2022-11-05T16:17:20.641Z,14.00
2022-11-05T16:19:49.233Z,10.00
2022-11-05T16:22:17.619Z,14.38
2022-11-05T16:24:45.919Z,14.57
2022-11-05T16:27:19.321Z,9.40
2022-11-05T16:29:52.709Z,10.35
2022-11-05T16:32:29.787Z,10.68
2022-11-05T16:37:29.099Z,14.25
2022-11-05T16:39:56.988Z,15.35
2022-11-05T16:42:40.043Z,17.25
2022-11-05T16:45:13.655Z,12.95
2022-11-05T16:47:42.061Z,12.30
2022-11-05T16:50:31.031Z,19.90
2022-11-05T16:52:59.155Z,19.40
2022-11-05T16:55:27.168Z,13.50
2022-11-05T16:57:56.415Z,12.02
2022-11-05T17:00:26.731Z,15.52
2022-11-05T17:02:55.467Z,16.77
2022-11-05T17:05:26.617Z,17.13
2022-11-05T17:07:55.628Z,21.77
2022-11-05T17:10:25.711Z,19.83
2022-11-05T17:12:54.642Z,15.77
2022-11-05T17:15:26.166Z,17.90
2022-11-05T17:17:55.650Z,17.77
2022-11-05T17:20:39.439Z,29.60
2022-11-05T17:23:09.949Z,22.83
2022-11-05T17:25:38.637Z,14.52
2022-11-05T17:28:07.173Z,11.32
2022-11-05T17:30:38.068Z,13.45
2022-11-05T17:33:08.408Z,16.55
2022-11-05T17:35:39.219Z,14.95
2022-11-05T17:38:07.130Z,21.70
2022-11-05T17:40:36.320Z,10.88
2022-11-05T17:43:05.049Z,16.48
2022-11-05T17:45:33.291Z,12.55
2022-11-05T17:48:03.308Z,12.73
2022-11-05T17:50:31.258Z,12.55
2022-11-05T17:52:59.161Z,13.52
2022-11-05T17:55:27.054Z,16.23
2022-11-05T17:57:55.045Z,16.23
2022-11-05T18:00:25.099Z,20.45
2022-11-05T18:02:54.594Z,16.30
2022-11-05T18:05:24.334Z,16.65
2022-11-05T18:07:52.660Z,14.73
2022-11-05T18:10:20.706Z,18.13
2022-11-05T18:12:48.994Z,24.80
2022-11-05T18:15:17.690Z,19.75
2022-11-05T18:17:46.629Z,20.65
2022-11-05T18:20:19.127Z,21.60
2022-11-05T18:22:50.798Z,23.20
2022-11-05T18:25:19.165Z,25.95
2022-11-05T18:27:47.108Z,19.30
2022-11-05T18:30:15.854Z,23.40
2022-11-05T18:32:44.201Z,20.17
2022-11-05T18:35:13.145Z,22.67
2022-11-05T18:37:41.489Z,29.67
2022-11-05T18:40:11.577Z,24.55
2022-11-05T18:42:39.541Z,24.60
2022-11-05T18:45:08.855Z,26.08
2022-11-05T18:47:36.919Z,23.00
2022-11-05T18:50:06.443Z,18.33
2022-11-05T18:52:34.355Z,22.73
2022-11-05T18:55:02.483Z,22.55
2022-11-05T18:57:34.230Z,21.33
2022-11-05T19:00:02.179Z,18.95
2022-11-05T19:02:30.257Z,21.27
2022-11-05T19:05:27.571Z,22.65
2022-11-05T19:07:46.023Z,20.92
2022-11-05T19:10:14.033Z,23.88
2022-11-05T19:12:43.318Z,18.80
2022-11-05T19:15:11.708Z,24.45
2022-11-05T19:17:39.574Z,13.10
2022-11-05T19:20:09.204Z,22.63
2022-11-05T19:22:37.103Z,18.35
2022-11-05T19:25:05.900Z,14.40
2022-11-05T19:27:35.544Z,18.10
2022-11-05T19:30:05.492Z,26.20
2022-11-05T19:32:33.363Z,15.10
2022-11-05T19:35:01.232Z,18.92
2022-11-05T19:37:29.126Z,17.13
2022-11-05T19:39:57.038Z,18.02
2022-11-05T19:42:25.134Z,17.05
2022-11-05T19:44:53.050Z,20.20
2022-11-05T19:47:22.332Z,17.63
2022-11-05T19:49:50.221Z,21.50
2022-11-05T19:52:18.210Z,24.98
2022-11-05T19:54:46.478Z,18.13
2022-11-05T19:57:14.445Z,19.88
2022-11-05T19:59:42.372Z,20.58
2022-11-05T20:02:15.996Z,27.92
2022-11-05T20:04:45.859Z,32.67
2022-11-05T20:07:13.786Z,33.33
2022-11-05T20:09:41.686Z,25.55
2022-11-05T20:12:09.648Z,25.75
2022-11-05T20:14:37.663Z,28.35
2022-11-05T20:17:05.558Z,23.00
2022-11-05T20:19:33.712Z,24.95
2022-11-05T20:22:03.004Z,28.30
2022-11-05T20:24:30.995Z,23.35
2022-11-05T20:26:58.912Z,27.98
2022-11-05T20:29:33.832Z,34.17
2022-11-05T20:32:03.573Z,26.27
2022-11-05T20:34:32.606Z,21.70
2022-11-05T20:37:02.033Z,24.48
2022-11-05T20:39:29.913Z,23.73
2022-11-05T20:42:00.423Z,22.65
2022-11-05T20:44:28.800Z,17.77
2022-11-05T20:46:56.962Z,20.55
2022-11-05T20:49:25.792Z,22.17
2022-11-05T20:51:54.185Z,17.00
2022-11-05T20:54:23.535Z,24.45
2022-11-05T20:56:51.667Z,18.88
2022-11-05T20:59:19.639Z,24.65
2022-11-05T21:01:47.615Z,19.25
2022-11-05T21:04:15.650Z,20.13
2022-11-05T21:06:43.565Z,23.33
2022-11-05T21:09:11.890Z,18.55
2022-11-05T21:11:58.832Z,21.80
2022-11-05T21:14:26.778Z,18.88
2022-11-05T21:16:54.689Z,23.10
2022-11-05T21:19:23.905Z,21.75
2022-11-05T21:21:51.832Z,23.30
2022-11-05T21:24:19.722Z,17.55
2022-11-05T21:26:49.910Z,20.48
2022-11-05T21:29:18.096Z,16.25
2022-11-05T21:31:46.125Z,18.98
2022-11-05T21:34:14.569Z,16.17
2022-11-05T21:36:42.459Z,21.73
2022-11-05T21:39:13.394Z,17.17
2022-11-05T21:41:42.530Z,15.38
2022-11-05T21:44:12.371Z,19.13
2022-11-05T21:46:40.273Z,21.88
2022-11-05T21:49:08.215Z,17.30
2022-11-05T21:51:53.912Z,19.05
2022-11-05T21:54:39.438Z,17.73
2022-11-05T21:57:31.896Z,26.15
2022-11-05T22:00:01.440Z,26.35
2022-11-05T22:02:29.528Z,22.23
2022-11-05T22:04:59.857Z,24.95
2022-11-05T22:07:29.937Z,22.50
2022-11-05T22:09:57.990Z,26.95
2022-11-05T22:12:26.475Z,21.98
2022-11-05T22:14:55.026Z,36.50
2022-11-05T22:17:24.665Z,29.42
2022-11-05T22:19:52.784Z,26.40
2022-11-05T22:22:20.742Z,25.20
2022-11-05T22:24:48.668Z,22.42
2022-11-05T22:27:20.552Z,29.05
2022-11-05T22:29:48.772Z,29.02
2022-11-05T22:32:17.058Z,25.30
2022-11-05T22:34:46.290Z,26.13
2022-11-05T22:37:14.377Z,29.77
2022-11-05T22:39:42.288Z,29.00
2022-11-05T22:42:10.269Z,26.48
2022-11-05T22:44:38.512Z,29.95
2022-11-05T22:47:06.843Z,29.77
2022-11-05T22:49:35.360Z,32.05
2022-11-05T22:52:04.876Z,25.13
2022-11-05T22:54:38.840Z,27.55
2022-11-05T22:57:07.591Z,27.95
2022-11-05T22:59:35.517Z,28.05
2022-11-05T23:02:09.232Z,30.92
2022-11-05T23:04:37.673Z,29.35
2022-11-05T23:07:27.518Z,33.95
2022-11-05T23:10:13.842Z,29.20
2022-11-05T23:12:43.086Z,37.63
2022-11-05T23:15:32.202Z,30.60
2022-11-05T23:18:17.485Z,39.25
2022-11-05T23:21:02.994Z,27.98
2022-11-05T23:23:49.881Z,26.70
2022-11-05T23:26:35.383Z,26.73
2022-11-05T23:29:03.342Z,29.40
2022-11-05T23:31:48.862Z,28.48
2022-11-05T23:34:16.800Z,28.40
2022-11-05T23:37:02.426Z,26.45
2022-11-05T23:39:31.660Z,28.80
2022-11-05T23:42:17.387Z,26.38
2022-11-05T23:45:02.752Z,32.38
2022-11-05T23:47:48.449Z,25.35
2022-11-05T23:50:16.615Z,25.50
2022-11-05T23:52:44.691Z,26.15
2022-11-05T23:55:13.962Z,22.77
2022-11-05T23:57:41.868Z,27.58
